createdAt,value
2018-03-23T07:21:35.835Z,18.97
2018-03-23T07:24:02.246Z,19.23
2018-03-23T07:26:28.580Z,17.77
2018-03-23T07:28:54.951Z,16.90
2018-03-23T07:31:21.374Z,16.53
2018-03-23T07:33:47.856Z,15.67
2018-03-23T07:36:14.392Z,17.93
2018-03-23T07:38:40.822Z,17.97
2018-03-23T07:41:07.250Z,17.13
2018-03-23T07:43:35.254Z,17.50
2018-03-23T07:46:01.621Z,13.70
2018-03-23T07:48:29.416Z,15.17
2018-03-23T07:50:57.413Z,15.00
2018-03-23T07:53:23.717Z,15.20
2018-03-23T07:55:50.936Z,15.77
2018-03-23T07:58:17.448Z,16.13
2018-03-23T08:00:44.525Z,16.13
2018-03-23T08:03:11.692Z,15.50
2018-03-23T08:05:38.862Z,18.07
2018-03-23T08:08:05.248Z,16.97
2018-03-23T08:10:31.986Z,16.17
2018-03-23T08:13:00.068Z,15.73
2018-03-23T08:15:26.492Z,15.27
2018-03-23T08:17:54.012Z,16.07
2018-03-23T08:20:23.399Z,17.20
2018-03-23T08:22:50.115Z,15.03
2018-03-23T08:25:17.256Z,17.77
2018-03-23T08:27:43.794Z,15.80
2018-03-23T08:30:11.645Z,15.63
2018-03-23T08:32:37.990Z,15.63
2018-03-23T08:35:04.395Z,14.37
2018-03-23T08:37:30.777Z,15.63
2018-03-23T08:39:57.146Z,15.83
2018-03-23T08:42:24.812Z,14.80
2018-03-23T08:44:51.308Z,15.50
2018-03-23T08:47:17.830Z,14.20
2018-03-23T08:49:44.194Z,15.70
2018-03-23T08:52:11.294Z,16.40
2018-03-23T08:54:39.162Z,16.67
2018-03-23T08:57:05.903Z,17.40
2018-03-23T08:59:33.779Z,16.30
2018-03-23T09:02:00.509Z,16.57
2018-03-23T09:04:26.903Z,15.93
2018-03-23T09:06:54.069Z,16.97
2018-03-23T09:09:21.207Z,15.63
2018-03-23T09:11:49.309Z,14.90
2018-03-23T09:14:16.823Z,16.67
2018-03-23T09:16:43.339Z,15.17
2018-03-23T09:19:09.792Z,14.30
2018-03-23T09:21:36.652Z,14.80
2018-03-23T09:24:03.736Z,13.90
2018-03-23T09:26:30.135Z,14.87
2018-03-23T09:28:58.199Z,13.90
2018-03-23T09:31:25.765Z,14.23
2018-03-23T09:33:52.551Z,14.57
2018-03-23T09:36:19.448Z,15.93
2018-03-23T09:38:45.847Z,25.97
2018-03-23T09:41:12.251Z,16.57
2018-03-23T09:43:38.647Z,18.00
2018-03-23T09:46:06.806Z,20.60
2018-03-23T09:48:34.931Z,14.70
2018-03-23T09:51:01.309Z,14.17
2018-03-23T09:53:27.692Z,14.80
2018-03-23T09:55:55.955Z,14.97
2018-03-23T09:58:22.392Z,15.30
2018-03-23T10:00:49.527Z,19.53
2018-03-23T10:03:15.878Z,18.83
2018-03-23T10:05:44.155Z,18.30
2018-03-23T10:08:11.005Z,26.93
2018-03-23T10:10:37.855Z,18.63
2018-03-23T10:13:04.311Z,17.73
2018-03-23T10:15:32.132Z,17.63
2018-03-23T10:18:00.287Z,16.40
2018-03-23T10:20:28.363Z,17.50
2018-03-23T10:22:54.763Z,16.00
2018-03-23T10:25:21.318Z,14.70
2018-03-23T10:27:48.438Z,14.40
2018-03-23T10:30:14.769Z,16.97
2018-03-23T10:32:41.878Z,16.20
2018-03-23T10:35:09.025Z,16.23
2018-03-23T10:37:35.361Z,16.30
2018-03-23T10:40:02.149Z,17.73
2018-03-23T10:42:28.591Z,19.43
2018-03-23T10:44:55.736Z,18.63
2018-03-23T10:47:23.023Z,15.63
2018-03-23T10:49:49.421Z,17.27
2018-03-23T10:52:16.828Z,17.40
2018-03-23T10:54:43.440Z,17.00
2018-03-23T10:57:11.317Z,16.60
2018-03-23T10:59:37.682Z,16.13
2018-03-23T11:02:06.614Z,16.10
2018-03-23T11:04:33.383Z,16.57
2018-03-23T11:07:00.912Z,15.93
2018-03-23T11:09:27.391Z,15.83
2018-03-23T11:11:54.962Z,15.63
2018-03-23T11:14:22.608Z,16.77
2018-03-23T11:16:49.784Z,15.43
2018-03-23T11:19:19.652Z,16.57
2018-03-23T11:21:47.139Z,16.57
2018-03-23T11:24:13.688Z,15.07
2018-03-23T11:26:40.184Z,16.70
2018-03-23T11:29:06.595Z,17.40
2018-03-23T11:31:35.044Z,14.77
2018-03-23T11:34:03.326Z,16.10
2018-03-23T11:36:30.920Z,17.80
2018-03-23T11:38:59.014Z,17.07
2018-03-23T11:41:25.745Z,16.47
2018-03-23T11:43:53.799Z,16.97
2018-03-23T11:46:21.906Z,18.63
2018-03-23T11:48:48.710Z,17.40
2018-03-23T11:51:15.067Z,17.10
2018-03-23T11:53:49.734Z,17.20
2018-03-23T11:56:17.246Z,17.20
2018-03-23T11:58:44.396Z,17.07
2018-03-23T12:01:11.519Z,17.03
2018-03-23T12:03:37.871Z,16.63
2018-03-23T12:06:05.363Z,17.43
2018-03-23T12:08:32.474Z,18.13
2018-03-23T12:10:58.896Z,16.87
2018-03-23T12:13:26.070Z,16.70
2018-03-23T12:15:52.571Z,17.53
2018-03-23T12:18:19.736Z,15.87
2018-03-23T12:20:46.107Z,16.60
2018-03-23T12:23:14.281Z,17.10
2018-03-23T12:25:40.690Z,17.30
2018-03-23T12:28:07.232Z,17.67
2018-03-23T12:30:35.021Z,17.30
2018-03-23T12:33:02.537Z,16.37
2018-03-23T12:35:28.911Z,17.30
2018-03-23T12:37:56.886Z,16.40
2018-03-23T12:40:23.627Z,15.10
2018-03-23T12:42:51.715Z,16.40
2018-03-23T12:45:18.599Z,18.07
2018-03-23T12:47:46.678Z,17.60
2018-03-23T12:50:13.321Z,17.20
2018-03-23T12:52:41.467Z,19.77
2018-03-23T12:55:08.604Z,17.73
2018-03-23T12:57:35.777Z,17.80
2018-03-23T13:00:02.302Z,17.87
2018-03-23T13:02:29.099Z,19.50
2018-03-23T13:04:56.628Z,18.03
2018-03-23T13:07:23.873Z,16.77
2018-03-23T13:09:51.944Z,16.90
2018-03-23T13:12:19.044Z,19.17
2018-03-23T13:14:45.459Z,16.93
2018-03-23T13:17:13.485Z,16.17
2018-03-23T13:19:40.718Z,16.50
2018-03-23T13:22:07.869Z,19.57
2018-03-23T13:24:34.342Z,18.57
2018-03-23T13:27:00.738Z,17.53
2018-03-23T13:29:27.294Z,18.73
2018-03-23T13:31:54.463Z,17.03
2018-03-23T13:34:21.683Z,17.43
2018-03-23T13:36:50.096Z,16.80
2018-03-23T13:39:16.605Z,17.50
2018-03-23T13:41:43.331Z,16.50
2018-03-23T13:44:09.825Z,17.67
2018-03-23T13:46:37.016Z,17.07
2018-03-23T13:49:03.524Z,17.70
2018-03-23T13:51:30.147Z,16.63
2018-03-23T13:53:56.602Z,19.00
2018-03-23T13:56:24.149Z,17.93
2018-03-23T13:58:56.429Z,17.97
2018-03-23T14:01:29.071Z,16.20
2018-03-23T14:03:55.508Z,15.90
2018-03-23T14:06:22.410Z,17.37
2018-03-23T14:08:50.742Z,16.97
2018-03-23T14:11:17.230Z,17.97
2018-03-23T14:13:43.770Z,16.03
2018-03-23T14:16:10.499Z,17.60
2018-03-23T14:18:37.371Z,16.97
2018-03-23T14:21:05.454Z,18.00
2018-03-23T14:23:31.940Z,16.70
2018-03-23T14:25:59.166Z,17.00
2018-03-23T14:28:27.376Z,17.07
2018-03-23T14:30:54.833Z,18.97
2018-03-23T14:33:23.075Z,16.70
2018-03-23T14:35:51.224Z,17.87
2018-03-23T14:38:19.077Z,18.87
2018-03-23T14:40:45.514Z,16.87
2018-03-23T14:43:12.121Z,17.63
2018-03-23T14:45:38.862Z,17.10
2018-03-23T14:48:05.152Z,19.60
2018-03-23T14:50:31.888Z,20.07
2018-03-23T14:52:58.979Z,19.77
2018-03-23T14:55:25.790Z,19.00
2018-03-23T14:57:53.989Z,19.37
2018-03-23T15:00:20.366Z,19.57
2018-03-23T15:02:47.148Z,19.77
2018-03-23T15:05:16.486Z,20.63
2018-03-23T15:07:44.444Z,19.73
2018-03-23T15:10:11.451Z,20.00
2018-03-23T15:12:39.113Z,19.13
2018-03-23T15:15:06.198Z,18.73
2018-03-23T15:17:34.262Z,17.00
2018-03-23T15:20:00.698Z,18.70
2018-03-23T15:22:27.072Z,17.90
2018-03-23T15:24:53.810Z,19.90
2018-03-23T15:27:21.680Z,19.57
2018-03-23T15:29:49.103Z,18.40
2018-03-23T15:32:15.776Z,18.23
2018-03-23T15:34:42.281Z,18.67
2018-03-23T15:37:10.214Z,19.90
2018-03-23T15:39:36.990Z,19.90
2018-03-23T15:42:03.767Z,19.40
2018-03-23T15:44:31.890Z,20.20
2018-03-23T15:46:59.609Z,19.83
2018-03-23T15:49:26.030Z,20.97
2018-03-23T15:51:53.492Z,19.47
2018-03-23T15:54:21.107Z,19.80
2018-03-23T15:56:49.016Z,21.20
2018-03-23T15:59:17.101Z,23.10
2018-03-23T16:01:45.200Z,21.57
2018-03-23T16:04:13.291Z,21.00
2018-03-23T16:06:40.014Z,19.53
2018-03-23T16:09:07.415Z,20.50
2018-03-23T16:11:34.362Z,21.33
2018-03-23T16:14:02.529Z,22.50
2018-03-23T16:16:30.114Z,20.43
2018-03-23T16:18:56.520Z,20.60
2018-03-23T16:21:24.632Z,20.50
2018-03-23T16:23:51.475Z,20.73
2018-03-23T16:26:18.661Z,20.20
2018-03-23T16:28:45.103Z,19.50
2018-03-23T16:31:11.758Z,19.40
2018-03-23T16:33:39.986Z,19.80
2018-03-23T16:36:08.086Z,19.93
2018-03-23T16:38:35.943Z,18.90
2018-03-23T16:41:04.034Z,17.80
2018-03-23T16:43:42.191Z,19.33
2018-03-23T16:46:09.100Z,20.33
2018-03-23T16:48:36.183Z,21.17
2018-03-23T16:51:04.294Z,19.40
2018-03-23T16:53:32.471Z,19.20
2018-03-23T16:55:58.947Z,20.40
2018-03-23T16:58:25.302Z,18.83
2018-03-23T17:00:51.780Z,18.67
2018-03-23T17:03:18.118Z,19.70
2018-03-23T17:05:45.658Z,20.50
2018-03-23T17:08:13.139Z,19.53
2018-03-23T17:10:39.577Z,20.50
2018-03-23T17:13:06.903Z,21.27
2018-03-23T17:15:35.044Z,20.43
2018-03-23T17:18:01.449Z,20.80
2018-03-23T17:20:28.165Z,20.37
2018-03-23T17:22:54.589Z,19.27
2018-03-23T17:25:21.742Z,20.97
2018-03-23T17:27:48.907Z,20.67
2018-03-23T17:30:16.074Z,20.53
2018-03-23T17:32:43.914Z,20.60
2018-03-23T17:35:10.865Z,21.50
2018-03-23T17:37:38.284Z,21.33
2018-03-23T17:40:04.660Z,19.43
2018-03-23T17:42:31.733Z,21.00
2018-03-23T17:44:59.256Z,21.73
2018-03-23T17:47:26.825Z,20.47
2018-03-23T17:49:53.961Z,21.87
2018-03-23T17:52:20.385Z,22.47
2018-03-23T17:54:47.237Z,21.47
2018-03-23T17:57:13.598Z,22.27
2018-03-23T17:59:40.377Z,21.60
2018-03-23T18:02:07.438Z,22.70
2018-03-23T18:04:34.616Z,22.87
2018-03-23T18:07:04.310Z,24.17
2018-03-23T18:09:31.646Z,23.00
2018-03-23T18:11:58.020Z,23.40
2018-03-23T18:14:25.149Z,23.30
2018-03-23T18:16:52.313Z,25.37
2018-03-23T18:19:19.444Z,22.70
2018-03-23T18:21:46.321Z,22.87
2018-03-23T18:24:13.833Z,24.30
2018-03-23T18:26:40.588Z,24.10
2018-03-23T18:29:08.148Z,23.23
2018-03-23T18:31:35.288Z,24.40
2018-03-23T18:34:02.424Z,23.50
2018-03-23T18:36:28.875Z,24.60
2018-03-23T18:38:55.194Z,22.90
2018-03-23T18:41:21.525Z,24.30
2018-03-23T18:43:47.953Z,24.30
2018-03-23T18:46:14.353Z,22.93
2018-03-23T18:48:40.796Z,25.60
2018-03-23T18:51:07.269Z,26.43
2018-03-23T18:53:34.769Z,26.97
2018-03-23T18:56:01.183Z,25.97
2018-03-23T18:58:27.605Z,25.27
2018-03-23T19:00:54.066Z,23.47
2018-03-23T19:03:20.539Z,23.50
2018-03-23T19:05:47.022Z,25.37
2018-03-23T19:08:13.378Z,25.60
2018-03-23T19:10:39.878Z,24.07
2018-03-23T19:13:07.249Z,24.87
2018-03-23T19:15:33.763Z,24.83
2018-03-23T19:18:00.928Z,25.70
2018-03-23T19:20:27.706Z,25.07
2018-03-23T19:22:54.162Z,25.57
2018-03-23T19:25:20.667Z,25.10
2018-03-23T19:27:47.212Z,24.67
2018-03-23T19:30:13.693Z,26.27
2018-03-23T19:32:41.063Z,25.30
2018-03-23T19:35:07.691Z,25.33
2018-03-23T19:37:35.056Z,23.40
2018-03-23T19:40:03.219Z,26.43
2018-03-23T19:42:29.620Z,26.43
2018-03-23T19:44:56.097Z,25.30
2018-03-23T19:47:23.706Z,25.93
2018-03-23T19:49:50.204Z,23.83
2018-03-23T19:52:17.362Z,24.33
2018-03-23T19:54:45.420Z,24.60
2018-03-23T19:57:12.620Z,26.17
2018-03-23T19:59:39.023Z,24.23
2018-03-23T20:02:05.490Z,25.50
2018-03-23T20:04:32.051Z,24.20
2018-03-23T20:06:58.708Z,24.77
2018-03-23T20:09:25.287Z,24.53
2018-03-23T20:11:52.902Z,25.57
2018-03-23T20:14:23.782Z,24.53
2018-03-23T20:16:51.082Z,25.87
2018-03-23T20:19:17.576Z,22.23
2018-03-23T20:21:44.377Z,28.97
2018-03-23T20:24:16.874Z,25.37
2018-03-23T20:26:43.281Z,25.23
2018-03-23T20:29:10.080Z,24.90
2018-03-23T20:31:42.672Z,24.60
2018-03-23T20:34:10.771Z,26.57
2018-03-23T20:36:37.950Z,27.67
2018-03-23T20:39:04.512Z,25.20
2018-03-23T20:41:31.078Z,27.57
2018-03-23T20:43:59.116Z,25.83
2018-03-23T20:46:25.643Z,26.40
2018-03-23T20:48:52.085Z,24.30
2018-03-23T20:51:19.919Z,24.53
2018-03-23T20:53:48.017Z,26.97
2018-03-23T20:56:14.396Z,25.73
2018-03-23T20:58:41.537Z,25.97
2018-03-23T21:01:08.048Z,23.10
2018-03-23T21:03:35.957Z,23.17
2018-03-23T21:06:02.475Z,22.80
2018-03-23T21:08:29.045Z,29.70
2018-03-23T21:10:56.235Z,23.70
2018-03-23T21:13:22.671Z,28.27
2018-03-23T21:15:49.060Z,23.30
2018-03-23T21:18:16.188Z,23.27
2018-03-23T21:20:43.307Z,24.50
2018-03-23T21:23:09.769Z,23.20
2018-03-23T21:25:36.132Z,23.83
2018-03-23T21:28:03.593Z,24.23
2018-03-23T21:30:30.027Z,24.30
2018-03-23T21:32:56.362Z,23.97
2018-03-23T21:35:22.719Z,23.30
2018-03-23T21:37:49.126Z,22.90
2018-03-23T21:40:16.299Z,22.93
2018-03-23T21:42:42.649Z,23.73
2018-03-23T21:45:10.564Z,23.63
2018-03-23T21:47:37.145Z,22.20
2018-03-23T21:50:03.950Z,20.23
2018-03-23T21:52:30.386Z,21.73
2018-03-23T21:54:56.789Z,22.50
2018-03-23T21:57:23.537Z,19.77
2018-03-23T21:59:51.441Z,22.53
2018-03-23T22:02:17.967Z,18.80
2018-03-23T22:04:45.152Z,19.83
2018-03-23T22:07:12.714Z,18.27
2018-03-23T22:09:40.007Z,20.47
2018-03-23T22:12:07.497Z,18.70
2018-03-23T22:14:34.356Z,21.07
2018-03-23T22:17:02.301Z,19.57
2018-03-23T22:19:28.675Z,19.53
2018-03-23T22:21:55.442Z,20.90
2018-03-23T22:24:22.199Z,21.00
2018-03-23T22:26:49.414Z,20.67
2018-03-23T22:29:16.542Z,21.07
2018-03-23T22:31:43.333Z,17.93
2018-03-23T22:34:09.696Z,20.57
2018-03-23T22:36:36.145Z,20.23
2018-03-23T22:39:02.646Z,20.20
2018-03-23T22:41:29.212Z,16.23
2018-03-23T22:43:56.354Z,19.87
2018-03-23T22:46:22.809Z,20.20
2018-03-23T22:48:49.175Z,18.70
2018-03-23T22:51:15.579Z,20.87
2018-03-23T22:53:42.488Z,20.80
2018-03-23T22:56:08.915Z,18.63
2018-03-23T22:58:35.359Z,20.10
2018-03-23T23:01:01.774Z,19.00
2018-03-23T23:03:28.254Z,19.97
2018-03-23T23:05:55.381Z,18.73
2018-03-23T23:08:21.837Z,17.40
2018-03-23T23:10:48.206Z,17.77
2018-03-23T23:13:14.639Z,18.47
2018-03-23T23:15:41.024Z,17.13
2018-03-23T23:18:08.215Z,18.40
2018-03-23T23:20:34.701Z,17.70
2018-03-23T23:23:01.158Z,18.27
2018-03-23T23:25:28.352Z,18.87
2018-03-23T23:27:54.872Z,18.77
2018-03-23T23:30:22.123Z,17.50
2018-03-23T23:32:48.553Z,14.60
2018-03-23T23:35:15.408Z,18.53
2018-03-23T23:37:41.757Z,18.27
2018-03-23T23:40:08.202Z,17.83
2018-03-23T23:42:35.532Z,18.43
2018-03-23T23:45:01.946Z,20.23
2018-03-23T23:47:28.806Z,19.10
2018-03-23T23:49:55.379Z,18.27
2018-03-23T23:52:21.774Z,19.20
2018-03-23T23:54:49.070Z,17.60
2018-03-23T23:57:15.790Z,17.77
2018-03-23T23:59:42.260Z,19.13
